Time;durP1;ratioP1;P1;durP2;ratioP2;P2;SDS_P1;SDS_P2;PMS_P1;PMS_P2;Temp;Humidity;BMP_temperature;BMP_pressure;BME280_temperature;BME280_humidity;BME280_pressure;Samples;Min_cycle;Max_cycle;Signal;HPM_P1;HPM_P2
2023/02/16 00:01:52;;;;;;;;;;;;;;;;;;5093383;28;2095;-44
2023/02/16 00:04:21;;;;;;;;;;;;;;;;;;5112792;28;2289;-40
2023/02/16 00:06:49;;;;;;;;;;;;;;;;;;5114188;28;2324;-42
2023/02/16 00:09:17;;;;;;;;;;;;;;;;;;5113901;28;1830;-45
2023/02/16 00:14:32;;;;;;;;;;;;;;;;;;5113832;28;2100;-39
2023/02/16 00:17:00;;;;;;;;;;;;;;;;;;5114028;28;1683;-42
2023/02/16 00:19:29;;;;;;;;;;;;;;;;;;5114033;28;1883;-43
2023/02/16 00:21:57;;;;;;;;;;;;;;;;;;5113635;28;1926;-44
2023/02/16 00:24:25;;;;;;;;;;;;;;;;;;5113595;28;2015;-43
2023/02/16 00:26:52;;;;;;;;;;;;;;;;;;5113583;28;2035;-40
2023/02/16 00:29:23;;;;;;;;;;;;;;;;;;5113765;28;2045;-44
2023/02/16 00:31:50;;;;;;;;;;;;;;;;;;5113848;28;1879;-41
2023/02/16 00:34:29;;;;;;;;;;;;;;;;;;5113179;28;1572;-41
2023/02/16 00:36:59;;;;;;;;;;;;;;;;;;5095277;28;1941;-43
2023/02/16 00:39:27;;;;;;;;;;;;;;;;;;5113603;28;1391;-43
2023/02/16 00:41:55;;;;;;;;;;;;;;;;;;5113524;28;2015;-41
2023/02/16 00:44:28;;;;;;;;;;;;;;;;;;5113415;28;1695;-44
2023/02/16 00:46:55;;;;;;;;;;;;;;;;;;5113159;28;2075;-42
2023/02/16 00:49:23;;;;;;;;;;;;;;;;;;5113414;28;1923;-42
2023/02/16 00:51:50;;;;;;;;;;;;;;;;;;5113090;28;1667;-44
2023/02/16 00:54:17;;;;;;;;;;;;;;;;;;5113100;28;1775;-46
2023/02/16 00:56:45;;;;;;;;;;;;;;;;;;5113207;28;2038;-46
2023/02/16 00:59:18;;;;;;;;;;;;;;;;;;5112940;28;2075;-41
2023/02/16 01:01:46;;;;;;;;;;;;;;;;;;5112848;28;2053;-41
2023/02/16 01:04:17;;;;;;;;;;;;;;;;;;5094509;28;1638;-46
2023/02/16 01:12:27;;;;;;;;;;;;;;;;;;5020479;28;2168;-46
2023/02/16 01:14:54;;;;;;;;;;;;;;;;;;5091693;28;1983;-42
2023/02/16 01:17:22;;;;;;;;;;;;;;;;;;5092331;28;2033;-47
2023/02/16 01:19:52;;;;;;;;;;;;;;;;;;5074222;28;2164;-46
2023/02/16 01:22:19;;;;;;;;;;;;;;;;;;5073986;28;1892;-45
2023/02/16 01:24:46;;;;;;;;;;;;;;;;;;5092249;28;1947;-45
2023/02/16 01:27:14;;;;;;;;;;;;;;;;;;5102081;28;2370;-41
2023/02/16 01:29:43;;;;;;;;;;;;;;;;;;5094096;28;2357;-41
2023/02/16 01:32:11;;;;;;;;;;;;;;;;;;5112741;28;1867;-45
2023/02/16 01:34:38;;;;;;;;;;;;;;;;;;5093819;28;2086;-44
2023/02/16 01:37:11;;;;;;;;;;;;;;;;;;5094290;28;1935;-45
2023/02/16 01:39:41;;;;;;;;;;;;;;;;;;5094120;28;2026;-42
2023/02/16 01:42:12;;;;;;;;;;;;;;;;;;5112471;28;1524;-41
2023/02/16 01:44:43;;;;;;;;;;;;;;;;;;5112489;28;2070;-42
2023/02/16 01:47:29;;;;;;;;;;;;;;;;;;5093910;28;1909;-46
2023/02/16 01:49:57;;;;;;;;;;;;;;;;;;5112001;28;2329;-44
2023/02/16 01:52:26;;;;;;;;;;;;;;;;;;5112174;28;1836;-43
2023/02/16 01:55:16;;;;;;;;;;;;;;;;;;5112016;28;2169;-43
2023/02/16 01:57:45;;;;;;;;;;;;;;;;;;5104688;28;2080;-44
2023/02/16 02:00:51;;;;;;;;;;;;;;;;;;5093496;28;2257;-40
2023/02/16 02:06:07;;;;;;;;;;;;;;;;;;5073296;28;1903;-47
2023/02/16 02:08:44;;;;;;;;;;;;;;;;;;5073370;28;2062;-44
2023/02/16 02:11:30;;;;;;;;;;;;;;;;;;5091616;28;1577;-45
2023/02/16 02:14:03;;;;;;;;;;;;;;;;;;5073080;28;1788;-43
2023/02/16 02:16:30;;;;;;;;;;;;;;;;;;5073239;28;1894;-44
2023/02/16 02:18:57;;;;;;;;;;;;;;;;;;5091333;28;2036;-43
2023/02/16 02:24:26;;;;;;;;;;;;;;;;;;5091189;28;1729;-46
2023/02/16 02:27:06;;;;;;;;;;;;;;;;;;5091400;28;1595;-40
2023/02/16 02:29:37;;;;;;;;;;;;;;;;;;5073103;28;1454;-42
2023/02/16 02:32:20;;;;;;;;;;;;;;;;;;5091082;28;1713;-43
2023/02/16 02:34:54;;;;;;;;;;;;;;;;;;5090953;28;1698;-44
2023/02/16 02:37:41;;;;;;;;;;;;;;;;;;5091221;28;1947;-42
2023/02/16 02:40:21;;;;;;;;;;;;;;;;;;5072852;28;2342;-40
2023/02/16 02:42:59;;;;;;;;;;;;;;;;;;5091179;28;1803;-47
2023/02/16 02:45:29;;;;;;;;;;;;;;;;;;5072913;28;2076;-49
2023/02/16 02:47:56;;;;;;;;;;;;;;;;;;5073022;28;2027;-46
2023/02/16 02:50:24;;;;;;;;;;;;;;;;;;5072849;28;1816;-44
2023/02/16 02:52:51;;;;;;;;;;;;;;;;;;5091226;28;1979;-46
2023/02/16 03:00:53;;;;;;;;;;;;;;;;;;5091129;28;1822;-42
2023/02/16 03:03:20;;;;;;;;;;;;;;;;;;5101636;28;1924;-45
2023/02/16 03:05:50;;;;;;;;;;;;;;;;;;5111395;28;2106;-46
2023/02/16 03:08:19;;;;;;;;;;;;;;;;;;5111149;28;1906;-42
2023/02/16 03:13:43;;;;;;;;;;;;;;;;;;5111285;28;2146;-45
2023/02/16 03:16:18;;;;;;;;;;;;;;;;;;5111253;28;1723;-40
2023/02/16 03:30:04;;;;;;;;;;;;;;;;;;5111187;28;1936;-42
2023/02/16 03:32:32;;;;;;;;;;;;;;;;;;5110863;28;1981;-45
2023/02/16 03:35:01;;;;;;;;;;;;;;;;;;5110884;28;2005;-40
2023/02/16 03:37:31;;;;;;;;;;;;;;;;;;5112468;28;1951;-45
2023/02/16 03:42:48;;;;;;;;;;;;;;;;;;5114488;28;2137;-45
2023/02/16 03:45:15;;;;;;;;;;;;;;;;;;5114747;28;2180;-47
2023/02/16 03:47:42;;;;;;;;;;;;;;;;;;5114145;28;1905;-46
2023/02/16 03:50:10;;;;;;;;;;;;;;;;;;5114176;28;1710;-50
2023/02/16 03:52:37;;;;;;;;;;;;;;;;;;5114499;28;1713;-42
2023/02/16 03:55:04;;;;;;;;;;;;;;;;;;5114460;28;1776;-44
2023/02/16 03:57:31;;;;;;;;;;;;;;;;;;5114469;28;1947;-44
2023/02/16 03:59:59;;;;;;;;;;;;;;;;;;5114058;28;2122;-42
2023/02/16 04:02:28;;;;;;;;;;;;;;;;;;5110542;28;2132;-43
2023/02/16 04:04:55;;;;;;;;;;;;;;;;;;5093689;28;1336;-44
2023/02/16 04:07:22;;;;;;;;;;;;;;;;;;5093857;28;1930;-45
2023/02/16 04:09:49;;;;;;;;;;;;;;;;;;5093893;28;1976;-44
2023/02/16 04:12:35;;;;;;;;;;;;;;;;;;5093706;28;1963;-40
2023/02/16 04:15:07;;;;;;;;;;;;;;;;;;5093297;28;1992;-44
2023/02/16 04:17:34;;;;;;;;;;;;;;;;;;5093599;28;2101;-46
2023/02/16 04:20:04;;;;;;;;;;;;;;;;;;5093242;28;1963;-41
2023/02/16 04:22:31;;;;;;;;;;;;;;;;;;5093538;28;1391;-46
2023/02/16 04:24:58;;;;;;;;;;;;;;;;;;5093254;28;1887;-44
2023/02/16 04:27:25;;;;;;;;;;;;;;;;;;5093194;28;2034;-44
2023/02/16 04:29:52;;;;;;;;;;;;;;;;;;5093374;28;2155;-42
2023/02/16 04:32:20;;;;;;;;;;;;;;;;;;5093571;28;2038;-45
2023/02/16 04:34:47;;;;;;;;;;;;;;;;;;5093116;28;1710;-44
2023/02/16 04:37:14;;;;;;;;;;;;;;;;;;5093206;28;1956;-43
2023/02/16 04:39:41;;;;;;;;;;;;;;;;;;5093197;28;1793;-44
2023/02/16 04:42:08;;;;;;;;;;;;;;;;;;5092966;28;2102;-42
2023/02/16 04:44:35;;;;;;;;;;;;;;;;;;5092838;28;1672;-41
2023/02/16 04:47:03;;;;;;;;;;;;;;;;;;5093114;28;1950;-42
2023/02/16 04:49:30;;;;;;;;;;;;;;;;;;5091713;28;2034;-45
2023/02/16 04:51:57;;;;;;;;;;;;;;;;;;5075065;28;1907;-43
2023/02/16 04:54:24;;;;;;;;;;;;;;;;;;5092723;28;2146;-43
2023/02/16 04:56:51;;;;;;;;;;;;;;;;;;5093370;28;2049;-45
2023/02/16 04:59:18;;;;;;;;;;;;;;;;;;5092652;28;1773;-43
2023/02/16 05:01:45;;;;;;;;;;;;;;;;;;5092628;28;2338;-43
2023/02/16 05:04:13;;;;;;;;;;;;;;;;;;5110776;28;1966;-45
2023/02/16 05:06:40;;;;;;;;;;;;;;;;;;5113046;28;1999;-47
2023/02/16 05:09:07;;;;;;;;;;;;;;;;;;5112796;28;2109;-45
2023/02/16 05:17:15;;;;;;;;;;;;;;;;;;5112862;28;2094;-47
2023/02/16 05:19:43;;;;;;;;;;;;;;;;;;5112663;28;1325;-45
2023/02/16 05:22:11;;;;;;;;;;;;;;;;;;5112661;28;2196;-48
2023/02/16 05:24:39;;;;;;;;;;;;;;;;;;5112747;28;1814;-45
2023/02/16 05:27:08;;;;;;;;;;;;;;;;;;5112462;28;1824;-39
2023/02/16 05:29:35;;;;;;;;;;;;;;;;;;5112352;28;2483;-46
2023/02/16 05:32:02;;;;;;;;;;;;;;;;;;5112464;28;1693;-47
2023/02/16 05:34:30;;;;;;;;;;;;;;;;;;5093812;28;2000;-45
2023/02/16 05:36:58;;;;;;;;;;;;;;;;;;5112656;28;1974;-46
2023/02/16 05:39:25;;;;;;;;;;;;;;;;;;5112688;28;1382;-42
2023/02/16 05:41:52;;;;;;;;;;;;;;;;;;5112120;28;1668;-47
2023/02/16 05:44:20;;;;;;;;;;;;;;;;;;5112434;28;1679;-45
2023/02/16 05:46:47;;;;;;;;;;;;;;;;;;5112124;28;2160;-45
2023/02/16 05:49:15;;;;;;;;;;;;;;;;;;5112436;28;1993;-44
2023/02/16 05:51:42;;;;;;;;;;;;;;;;;;5112129;28;1846;-46
2023/02/16 05:54:15;;;;;;;;;;;;;;;;;;5111451;28;1850;-49
2023/02/16 05:56:47;;;;;;;;;;;;;;;;;;5111840;28;1464;-48
2023/02/16 05:59:14;;;;;;;;;;;;;;;;;;5111867;28;1967;-43
2023/02/16 06:01:42;;;;;;;;;;;;;;;;;;5112230;28;2299;-42
2023/02/16 06:04:11;;;;;;;;;;;;;;;;;;5094049;28;1917;-42
2023/02/16 06:06:38;;;;;;;;;;;;;;;;;;5091699;28;2153;-40
2023/02/16 06:09:06;;;;;;;;;;;;;;;;;;5091164;28;1912;-38
2023/02/16 06:11:36;;;;;;;;;;;;;;;;;;5091420;28;1951;-44
2023/02/16 06:14:05;;;;;;;;;;;;;;;;;;5091402;28;1869;-42
2023/02/16 06:16:33;;;;;;;;;;;;;;;;;;5091241;28;1971;-45
2023/02/16 06:19:00;;;;;;;;;;;;;;;;;;5091649;28;2161;-45
2023/02/16 06:21:28;;;;;;;;;;;;;;;;;;5091572;28;1730;-48
2023/02/16 06:23:55;;;;;;;;;;;;;;;;;;5091441;28;2009;-40
2023/02/16 06:26:22;;;;;;;;;;;;;;;;;;5091291;28;1479;-46
2023/02/16 06:28:50;;;;;;;;;;;;;;;;;;5091115;28;1982;-42
2023/02/16 06:31:17;;;;;;;;;;;;;;;;;;5090911;28;1542;-43
2023/02/16 06:33:44;;;;;;;;;;;;;;;;;;5091235;28;2017;-43
2023/02/16 06:36:11;;;;;;;;;;;;;;;;;;5090954;28;1852;-43
2023/02/16 06:38:38;;;;;;;;;;;;;;;;;;5090835;28;1634;-44
2023/02/16 06:41:06;;;;;;;;;;;;;;;;;;5090937;28;1693;-43
2023/02/16 06:43:33;;;;;;;;;;;;;;;;;;5087487;28;1851;-39
2023/02/16 06:46:00;;;;;;;;;;;;;;;;;;5090305;28;1915;-44
2023/02/16 06:48:27;;;;;;;;;;;;;;;;;;5090204;28;1965;-50
2023/02/16 06:50:54;;;;;;;;;;;;;;;;;;5089051;28;1182;-47
2023/02/16 06:53:21;;;;;;;;;;;;;;;;;;5089745;28;2034;-44
2023/02/16 06:55:49;;;;;;;;;;;;;;;;;;5088136;28;2015;-41
2023/02/16 06:58:16;;;;;;;;;;;;;;;;;;5088770;28;1621;-43
2023/02/16 07:00:43;;;;;;;;;;;;;;;;;;5090388;28;1709;-45
2023/02/16 07:03:10;;;;;;;;;;;;;;;;;;5090870;28;2249;-45
2023/02/16 07:05:38;;;;;;;;;;;;;;;;;;5090831;28;1875;-42
2023/02/16 07:08:05;;;;;;;;;;;;;;;;;;5090662;28;1901;-43
2023/02/16 07:10:32;;;;;;;;;;;;;;;;;;5091042;28;1913;-44
2023/02/16 07:13:14;;;;;;;;;;;;;;;;;;5093929;28;1499;-43
2023/02/16 07:15:42;;;;;;;;;;;;;;;;;;5094745;28;2150;-40
2023/02/16 07:18:09;;;;;;;;;;;;;;;;;;5094517;28;1731;-47
2023/02/16 07:20:36;;;;;;;;;;;;;;;;;;5094691;28;1947;-41
2023/02/16 07:23:03;;;;;;;;;;;;;;;;;;5076707;28;1752;-44
2023/02/16 07:25:31;;;;;;;;;;;;;;;;;;5094608;28;1846;-39
2023/02/16 07:27:59;;;;;;;;;;;;;;;;;;5094527;28;1976;-40
2023/02/16 07:30:26;;;;;;;;;;;;;;;;;;5094406;28;1908;-46
2023/02/16 07:32:54;;;;;;;;;;;;;;;;;;5094463;28;1617;-46
2023/02/16 07:35:21;;;;;;;;;;;;;;;;;;5073371;28;1418;-39
2023/02/16 07:37:48;;;;;;;;;;;;;;;;;;5093133;28;2155;-41
2023/02/16 07:40:16;;;;;;;;;;;;;;;;;;5092855;28;1612;-42
2023/02/16 07:42:43;;;;;;;;;;;;;;;;;;5092051;28;2105;-43
2023/02/16 07:45:10;;;;;;;;;;;;;;;;;;5095382;28;1641;-40
2023/02/16 07:47:37;;;;;;;;;;;;;;;;;;5103691;28;1720;-45
2023/02/16 07:50:05;;;;;;;;;;;;;;;;;;5095542;28;2110;-41
2023/02/16 07:52:33;;;;;;;;;;;;;;;;;;5094393;28;1659;-43
2023/02/16 07:55:01;;;;;;;;;;;;;;;;;;5094123;28;2478;-41
2023/02/16 07:57:28;;;;;;;;;;;;;;;;;;5093833;28;1453;-43
2023/02/16 07:59:56;;;;;;;;;;;;;;;;;;5093955;28;2066;-44
2023/02/16 08:02:23;;;;;;;;;;;;;;;;;;5093780;28;2315;-49
2023/02/16 08:04:53;;;;;;;;;;;;;;;;;;5093796;28;1913;-53
2023/02/16 08:07:21;;;;;;;;;;;;;;;;;;5093733;28;1941;-47
2023/02/16 08:09:48;;;;;;;;;;;;;;;;;;5093558;28;1996;-43
2023/02/16 08:12:16;;;;;;;;;;;;;;;;;;5093757;28;1818;-50
2023/02/16 08:14:45;;;;;;;;;;;;;;;;;;5093548;28;1590;-41
2023/02/16 08:17:13;;;;;;;;;;;;;;;;;;5093031;28;2007;-43
2023/02/16 08:19:40;;;;;;;;;;;;;;;;;;5113663;28;1836;-40
2023/02/16 08:22:08;;;;;;;;;;;;;;;;;;5113951;28;1515;-44
2023/02/16 08:24:36;;;;;;;;;;;;;;;;;;5113925;28;2171;-46
2023/02/16 08:27:04;;;;;;;;;;;;;;;;;;5113734;28;1518;-46
2023/02/16 08:29:31;;;;;;;;;;;;;;;;;;5113836;28;2013;-39
2023/02/16 08:32:06;;;;;;;;;;;;;;;;;;5113576;28;2127;-41
2023/02/16 08:34:33;;;;;;;;;;;;;;;;;;5113787;28;1841;-43
2023/02/16 08:37:01;;;;;;;;;;;;;;;;;;5113661;28;2310;-43
2023/02/16 08:39:30;;;;;;;;;;;;;;;;;;5113476;28;1821;-43
2023/02/16 08:41:59;;;;;;;;;;;;;;;;;;5113306;28;1383;-45
2023/02/16 08:44:27;;;;;;;;;;;;;;;;;;5113565;28;2015;-42
2023/02/16 08:46:57;;;;;;;;;;;;;;;;;;5113374;28;1835;-41
2023/02/16 08:49:25;;;;;;;;;;;;;;;;;;5113310;28;2191;-41
2023/02/16 08:51:53;;;;;;;;;;;;;;;;;;5113367;28;1812;-44
2023/02/16 08:54:29;;;;;;;;;;;;;;;;;;5113239;28;2078;-46
2023/02/16 08:56:57;;;;;;;;;;;;;;;;;;5113297;28;1721;-45
2023/02/16 08:59:25;;;;;;;;;;;;;;;;;;5112983;28;1911;-39
2023/02/16 09:01:54;;;;;;;;;;;;;;;;;;5112572;28;2165;-43
2023/02/16 09:04:23;;;;;;;;;;;;;;;;;;5089404;28;1893;-40
2023/02/16 09:06:51;;;;;;;;;;;;;;;;;;5092185;28;1923;-41
2023/02/16 09:09:18;;;;;;;;;;;;;;;;;;5092403;28;1910;-45
2023/02/16 09:11:46;;;;;;;;;;;;;;;;;;5090837;28;2135;-41
2023/02/16 09:14:14;;;;;;;;;;;;;;;;;;5091722;28;1990;-46
2023/02/16 09:16:44;;;;;;;;;;;;;;;;;;5091580;28;1474;-40
2023/02/16 09:19:13;;;;;;;;;;;;;;;;;;5091338;28;1839;-39
2023/02/16 09:21:41;;;;;;;;;;;;;;;;;;5091545;28;1620;-42
2023/02/16 09:24:08;;;;;;;;;;;;;;;;;;5091427;28;1708;-47
2023/02/16 09:26:37;;;;;;;;;;;;;;;;;;5092257;28;1694;-46
2023/02/16 09:29:05;;;;;;;;;;;;;;;;;;5092116;28;1977;-44
2023/02/16 09:31:34;;;;;;;;;;;;;;;;;;5092086;28;1956;-44
2023/02/16 09:34:13;;;;;;;;;;;;;;;;;;5091928;28;1723;-46
2023/02/16 09:36:41;;;;;;;;;;;;;;;;;;5092152;28;2086;-50
2023/02/16 09:39:08;;;;;;;;;;;;;;;;;;5092468;28;2163;-48
2023/02/16 09:41:48;;;;;;;;;;;;;;;;;;5091698;28;2177;-46
2023/02/16 09:44:33;;;;;;;;;;;;;;;;;;5091782;28;1409;-44
2023/02/16 09:47:03;;;;;;;;;;;;;;;;;;5091893;28;1818;-42
2023/02/16 09:49:31;;;;;;;;;;;;;;;;;;5091708;28;1979;-42
2023/02/16 09:52:01;;;;;;;;;;;;;;;;;;5091620;28;1656;-42
2023/02/16 09:54:29;;;;;;;;;;;;;;;;;;5091539;28;2229;-43
2023/02/16 09:57:12;;;;;;;;;;;;;;;;;;5091516;28;1984;-49
2023/02/16 09:59:39;;;;;;;;;;;;;;;;;;5091837;28;1823;-43
2023/02/16 10:02:16;;;;;;;;;;;;;;;;;;5091622;28;1964;-45
2023/02/16 10:04:49;;;;;;;;;;;;;;;;;;5091784;28;1816;-45
2023/02/16 10:07:22;;;;;;;;;;;;;;;;;;5091511;28;2132;-42
2023/02/16 10:09:52;;;;;;;;;;;;;;;;;;5087497;28;1982;-39
2023/02/16 10:12:32;;;;;;;;;;;;;;;;;;5090730;28;2052;-47
2023/02/16 10:15:01;;;;;;;;;;;;;;;;;;5090505;28;1871;-41
2023/02/16 10:17:51;;;;;;;;;;;;;;;;;;5089708;28;1823;-41
2023/02/16 10:20:33;;;;;;;;;;;;;;;;;;5090894;28;1946;-44
2023/02/16 10:23:01;;;;;;;;;;;;;;;;;;5090317;28;1735;-46
2023/02/16 10:25:36;;;;;;;;;;;;;;;;;;5089860;28;1938;-45
2023/02/16 10:28:24;;;;;;;;;;;;;;;;;;5102096;28;2005;-45
2023/02/16 10:31:00;;;;;;;;;;;;;;;;;;5098931;28;1990;-38
2023/02/16 10:33:57;;;;;;;;;;;;;;;;;;5110187;28;1696;-40
2023/02/16 10:36:40;;;;;;;;;;;;;;;;;;5055854;28;1839;-43
2023/02/16 10:39:20;;;;;;;;;;;;;;;;;;5110038;28;2004;-43
2023/02/16 10:41:53;;;;;;;;;;;;;;;;;;5110516;28;2015;-36
2023/02/16 10:44:23;;;;;;;;;;;;;;;;;;5110481;28;1694;-43
2023/02/16 10:46:56;;;;;;;;;;;;;;;;;;5110198;28;1746;-41
2023/02/16 10:49:24;;;;;;;;;;;;;;;;;;5114049;28;2031;-39
2023/02/16 10:51:53;;;;;;;;;;;;;;;;;;5115075;28;1941;-38
2023/02/16 10:54:26;;;;;;;;;;;;;;;;;;5113826;28;2040;-37
2023/02/16 10:56:58;;;;;;;;;;;;;;;;;;5094310;28;1949;-36
2023/02/16 10:59:37;;;;;;;;;;;;;;;;;;5093681;28;2033;-40
2023/02/16 11:02:18;;;;;;;;;;;;;;;;;;5093423;28;2013;-37
2023/02/16 11:04:47;;;;;;;;;;;;;;;;;;5094077;28;1371;-36
2023/02/16 11:07:16;;;;;;;;;;;;;;;;;;5092987;28;1654;-42
2023/02/16 11:09:44;;;;;;;;;;;;;;;;;;5092468;28;2084;-44
2023/02/16 11:12:31;;;;;;;;;;;;;;;;;;5094057;28;1618;-43
2023/02/16 11:15:04;;;;;;;;;;;;;;;;;;5094116;28;1922;-48
2023/02/16 11:17:46;;;;;;;;;;;;;;;;;;5094660;28;1992;-43
2023/02/16 11:20:25;;;;;;;;;;;;;;;;;;5094605;28;1823;-37
2023/02/16 11:22:53;;;;;;;;;;;;;;;;;;5094925;28;2013;-42
2023/02/16 11:25:22;;;;;;;;;;;;;;;;;;5115150;28;1988;-41
2023/02/16 11:27:55;;;;;;;;;;;;;;;;;;5114300;28;1925;-43
2023/02/16 11:30:41;;;;;;;;;;;;;;;;;;5114513;28;1964;-46
2023/02/16 11:33:21;;;;;;;;;;;;;;;;;;5114904;28;2428;-43
2023/02/16 11:35:48;;;;;;;;;;;;;;;;;;5114967;28;1771;-44
2023/02/16 11:38:29;;;;;;;;;;;;;;;;;;5114671;28;2238;-40
2023/02/16 11:40:58;;;;;;;;;;;;;;;;;;5114378;28;1905;-42
2023/02/16 11:43:27;;;;;;;;;;;;;;;;;;5114681;28;1884;-43
2023/02/16 11:45:58;;;;;;;;;;;;;;;;;;5114607;28;2102;-46
2023/02/16 11:48:27;;;;;;;;;;;;;;;;;;5114570;28;1834;-45
2023/02/16 11:50:56;;;;;;;;;;;;;;;;;;5114498;28;1987;-43
2023/02/16 11:53:25;;;;;;;;;;;;;;;;;;5114364;28;2159;-45
2023/02/16 11:56:09;;;;;;;;;;;;;;;;;;5114245;28;1981;-43
2023/02/16 11:58:36;;;;;;;;;;;;;;;;;;5113628;28;1919;-42
2023/02/16 12:01:22;;;;;;;;;;;;;;;;;;5113961;28;1988;-48
2023/02/16 12:03:58;;;;;;;;;;;;;;;;;;5098986;28;2171;-45
2023/02/16 12:06:29;;;;;;;;;;;;;;;;;;5093852;28;1949;-43
2023/02/16 12:08:59;;;;;;;;;;;;;;;;;;5093634;28;2159;-41
2023/02/16 12:11:37;;;;;;;;;;;;;;;;;;5093665;28;2114;-46
2023/02/16 12:14:21;;;;;;;;;;;;;;;;;;5093569;28;1839;-47
2023/02/16 12:16:57;;;;;;;;;;;;;;;;;;5093663;28;2028;-41
2023/02/16 12:19:32;;;;;;;;;;;;;;;;;;5093296;28;2190;-44
2023/02/16 12:22:18;;;;;;;;;;;;;;;;;;5093331;28;1700;-40
2023/02/16 12:24:54;;;;;;;;;;;;;;;;;;5093417;28;1736;-44
2023/02/16 12:27:41;;;;;;;;;;;;;;;;;;5093374;28;1714;-43
2023/02/16 12:30:19;;;;;;;;;;;;;;;;;;5093133;28;1902;-45
2023/02/16 12:32:52;;;;;;;;;;;;;;;;;;5093441;28;1960;-43
2023/02/16 12:35:38;;;;;;;;;;;;;;;;;;5092857;28;1390;-41
2023/02/16 12:38:10;;;;;;;;;;;;;;;;;;5093136;28;1452;-43
2023/02/16 12:40:56;;;;;;;;;;;;;;;;;;5093049;28;1897;-48
2023/02/16 12:43:38;;;;;;;;;;;;;;;;;;5093036;28;1705;-46
2023/02/16 12:46:15;;;;;;;;;;;;;;;;;;5092649;28;2103;-49
2023/02/16 12:48:48;;;;;;;;;;;;;;;;;;5092786;28;2045;-40
2023/02/16 12:51:21;;;;;;;;;;;;;;;;;;5074702;28;1963;-45
2023/02/16 12:54:09;;;;;;;;;;;;;;;;;;5092830;28;1779;-44
2023/02/16 12:56:44;;;;;;;;;;;;;;;;;;5052190;28;1407;-42
2023/02/16 12:59:21;;;;;;;;;;;;;;;;;;5092471;28;1984;-43
2023/02/16 13:01:50;;;;;;;;;;;;;;;;;;5092908;28;1941;-46
2023/02/16 13:04:21;;;;;;;;;;;;;;;;;;5092737;28;2081;-43
2023/02/16 13:06:51;;;;;;;;;;;;;;;;;;5092752;28;2040;-46
2023/02/16 13:09:40;;;;;;;;;;;;;;;;;;5091610;28;1840;-43
2023/02/16 13:12:26;;;;;;;;;;;;;;;;;;5092400;28;2026;-44
2023/02/16 13:15:01;;;;;;;;;;;;;;;;;;5111641;28;2168;-41
2023/02/16 13:17:33;;;;;;;;;;;;;;;;;;5112844;28;1738;-43
2023/02/16 13:20:01;;;;;;;;;;;;;;;;;;5112930;28;2041;-41
2023/02/16 13:22:56;;;;;;;;;;;;;;;;;;5112293;28;1993;-43
2023/02/16 13:25:36;;;;;;;;;;;;;;;;;;5089262;28;1691;-41
2023/02/16 13:28:26;;;;;;;;;;;;;;;;;;5112409;28;2017;-43
2023/02/16 13:31:05;;;;;;;;;;;;;;;;;;5112493;28;1938;-44
2023/02/16 13:33:39;;;;;;;;;;;;;;;;;;5112467;28;1587;-45
2023/02/16 13:36:18;;;;;;;;;;;;;;;;;;5112028;28;1582;-45
2023/02/16 13:39:23;;;;;;;;;;;;;;;;;;5112487;28;1943;-40
2023/02/16 13:41:57;;;;;;;;;;;;;;;;;;5049463;28;2170;-41
2023/02/16 13:44:31;;;;;;;;;;;;;;;;;;5049399;28;1937;-44
2023/02/16 13:47:01;;;;;;;;;;;;;;;;;;5085242;28;1828;-42
2023/02/16 13:49:41;;;;;;;;;;;;;;;;;;5112285;28;1614;-43
2023/02/16 13:52:10;;;;;;;;;;;;;;;;;;5111812;28;1934;-44
2023/02/16 13:54:40;;;;;;;;;;;;;;;;;;5112043;28;2291;-41
2023/02/16 13:57:11;;;;;;;;;;;;;;;;;;5111941;28;2128;-46
2023/02/16 13:59:38;;;;;;;;;;;;;;;;;;5112008;28;2284;-42
2023/02/16 14:02:10;;;;;;;;;;;;;;;;;;5111545;28;2073;-44
2023/02/16 14:04:40;;;;;;;;;;;;;;;;;;5091392;28;2165;-44
2023/02/16 14:07:21;;;;;;;;;;;;;;;;;;5091513;28;1674;-46
2023/02/16 14:09:48;;;;;;;;;;;;;;;;;;5091290;28;2085;-44
2023/02/16 14:12:21;;;;;;;;;;;;;;;;;;5091368;28;2056;-41
2023/02/16 14:14:51;;;;;;;;;;;;;;;;;;5091512;28;1848;-45
2023/02/16 14:17:19;;;;;;;;;;;;;;;;;;5091496;28;1341;-44
2023/02/16 14:19:59;;;;;;;;;;;;;;;;;;5091163;28;1775;-43
2023/02/16 14:22:37;;;;;;;;;;;;;;;;;;5091056;28;1607;-41
2023/02/16 14:25:26;;;;;;;;;;;;;;;;;;5091478;28;1952;-45
2023/02/16 14:27:55;;;;;;;;;;;;;;;;;;5091349;28;1801;-42
2023/02/16 14:30:28;;;;;;;;;;;;;;;;;;5091322;28;2128;-46
2023/02/16 14:33:11;;;;;;;;;;;;;;;;;;5090409;28;1833;-43
2023/02/16 14:35:40;;;;;;;;;;;;;;;;;;5089114;28;1681;-44
2023/02/16 14:38:20;;;;;;;;;;;;;;;;;;5088787;28;2157;-47
2023/02/16 14:40:54;;;;;;;;;;;;;;;;;;5089192;28;1410;-46
2023/02/16 14:43:24;;;;;;;;;;;;;;;;;;5089254;28;2013;-45
2023/02/16 14:45:51;;;;;;;;;;;;;;;;;;5089262;28;1415;-45
2023/02/16 14:48:53;;;;;;;;;;;;;;;;;;5089593;28;1967;-44
2023/02/16 14:51:49;;;;;;;;;;;;;;;;;;5047971;28;2054;-44
2023/02/16 14:54:36;;;;;;;;;;;;;;;;;;5061806;28;1452;-45
2023/02/16 14:57:06;;;;;;;;;;;;;;;;;;5090926;28;1651;-45
2023/02/16 14:59:33;;;;;;;;;;;;;;;;;;5090850;28;1974;-43
2023/02/16 15:02:20;;;;;;;;;;;;;;;;;;5109517;28;1720;-44
2023/02/16 15:04:47;;;;;;;;;;;;;;;;;;5090750;28;1968;-44
2023/02/16 15:07:17;;;;;;;;;;;;;;;;;;5090713;28;2108;-42
2023/02/16 15:09:46;;;;;;;;;;;;;;;;;;5090750;28;2070;-43
2023/02/16 15:12:23;;;;;;;;;;;;;;;;;;5090756;28;2177;-47
2023/02/16 15:14:52;;;;;;;;;;;;;;;;;;5090737;28;1950;-47
2023/02/16 15:17:22;;;;;;;;;;;;;;;;;;5090960;28;1962;-46
2023/02/16 15:19:51;;;;;;;;;;;;;;;;;;5090715;28;2172;-50
2023/02/16 15:22:20;;;;;;;;;;;;;;;;;;5090477;28;1738;-47
2023/02/16 15:24:55;;;;;;;;;;;;;;;;;;5090697;28;1997;-49
2023/02/16 15:27:22;;;;;;;;;;;;;;;;;;5090453;28;1987;-44
2023/02/16 15:30:04;;;;;;;;;;;;;;;;;;5090691;28;2039;-47
2023/02/16 15:32:32;;;;;;;;;;;;;;;;;;5090737;28;2085;-40
2023/02/16 15:35:08;;;;;;;;;;;;;;;;;;5094304;28;1275;-47
2023/02/16 15:37:38;;;;;;;;;;;;;;;;;;5094338;28;1927;-49
2023/02/16 15:40:23;;;;;;;;;;;;;;;;;;5094294;28;2112;-50
2023/02/16 15:42:53;;;;;;;;;;;;;;;;;;5094180;28;1795;-46
2023/02/16 15:45:28;;;;;;;;;;;;;;;;;;5094239;28;1758;-43
2023/02/16 15:48:14;;;;;;;;;;;;;;;;;;5094141;28;1695;-45
2023/02/16 15:50:42;;;;;;;;;;;;;;;;;;5093835;28;2101;-44
2023/02/16 15:53:11;;;;;;;;;;;;;;;;;;5093586;28;2127;-44
2023/02/16 15:55:42;;;;;;;;;;;;;;;;;;5093808;28;1799;-51
2023/02/16 15:58:11;;;;;;;;;;;;;;;;;;5093838;28;2135;-45
2023/02/16 16:00:39;;;;;;;;;;;;;;;;;;5093741;28;1965;-46
2023/02/16 16:03:08;;;;;;;;;;;;;;;;;;5093636;28;1774;-46
2023/02/16 16:05:35;;;;;;;;;;;;;;;;;;5093557;28;1742;-45
2023/02/16 16:08:03;;;;;;;;;;;;;;;;;;5093651;28;1634;-43
2023/02/16 16:10:31;;;;;;;;;;;;;;;;;;5093928;28;2117;-43
2023/02/16 16:13:10;;;;;;;;;;;;;;;;;;5093914;28;2003;-42
2023/02/16 16:15:40;;;;;;;;;;;;;;;;;;5093534;28;1899;-45
2023/02/16 16:18:26;;;;;;;;;;;;;;;;;;5093282;28;1393;-42
2023/02/16 16:21:02;;;;;;;;;;;;;;;;;;5093521;28;1887;-48
2023/02/16 16:23:30;;;;;;;;;;;;;;;;;;5093373;28;2058;-48
2023/02/16 16:25:58;;;;;;;;;;;;;;;;;;5093507;28;1683;-46
2023/02/16 16:28:28;;;;;;;;;;;;;;;;;;5093462;28;1829;-41
2023/02/16 16:31:14;;;;;;;;;;;;;;;;;;5093265;28;1988;-45
2023/02/16 16:33:55;;;;;;;;;;;;;;;;;;5093194;28;1391;-46
2023/02/16 16:36:31;;;;;;;;;;;;;;;;;;5093250;28;2367;-44
2023/02/16 16:39:10;;;;;;;;;;;;;;;;;;5092997;28;1934;-44
2023/02/16 16:41:39;;;;;;;;;;;;;;;;;;5093274;28;1904;-45
2023/02/16 16:44:10;;;;;;;;;;;;;;;;;;5093069;28;1734;-47
2023/02/16 16:46:37;;;;;;;;;;;;;;;;;;5092918;28;1987;-45
2023/02/16 16:49:11;;;;;;;;;;;;;;;;;;5093214;28;2160;-45
2023/02/16 16:51:39;;;;;;;;;;;;;;;;;;5093002;28;2124;-48
2023/02/16 16:54:11;;;;;;;;;;;;;;;;;;5092578;28;2015;-43
2023/02/16 16:56:39;;;;;;;;;;;;;;;;;;5092864;28;1994;-42
2023/02/16 16:59:06;;;;;;;;;;;;;;;;;;5091491;28;1726;-45
2023/02/16 17:01:34;;;;;;;;;;;;;;;;;;5093081;28;2059;-43
2023/02/16 17:04:01;;;;;;;;;;;;;;;;;;5109204;28;1739;-44
2023/02/16 17:06:29;;;;;;;;;;;;;;;;;;5113028;28;2041;-46
2023/02/16 17:08:56;;;;;;;;;;;;;;;;;;5113230;28;1908;-47
2023/02/16 17:11:25;;;;;;;;;;;;;;;;;;5112760;28;2278;-44
2023/02/16 17:13:53;;;;;;;;;;;;;;;;;;5112740;28;2289;-44
2023/02/16 17:16:26;;;;;;;;;;;;;;;;;;5112517;28;2058;-46
2023/02/16 17:18:53;;;;;;;;;;;;;;;;;;5112780;28;1774;-42
2023/02/16 17:21:21;;;;;;;;;;;;;;;;;;5112720;28;1832;-45
2023/02/16 17:23:48;;;;;;;;;;;;;;;;;;5112720;28;1701;-43
2023/02/16 17:26:20;;;;;;;;;;;;;;;;;;5112590;28;1993;-45
2023/02/16 17:28:47;;;;;;;;;;;;;;;;;;5112741;28;2028;-44
2023/02/16 17:31:14;;;;;;;;;;;;;;;;;;5112624;28;2237;-46
2023/02/16 17:33:43;;;;;;;;;;;;;;;;;;5112459;28;2179;-45
2023/02/16 17:36:13;;;;;;;;;;;;;;;;;;5112428;28;1694;-47
2023/02/16 17:38:40;;;;;;;;;;;;;;;;;;5112419;28;2334;-44
2023/02/16 17:41:20;;;;;;;;;;;;;;;;;;5112474;28;1883;-43
2023/02/16 17:43:47;;;;;;;;;;;;;;;;;;5112275;28;1677;-44
2023/02/16 17:46:15;;;;;;;;;;;;;;;;;;5112425;28;1588;-42
2023/02/16 17:48:43;;;;;;;;;;;;;;;;;;5112038;28;1846;-46
2023/02/16 17:51:14;;;;;;;;;;;;;;;;;;5112250;28;1915;-43
2023/02/16 17:53:41;;;;;;;;;;;;;;;;;;5112109;28;1775;-47
2023/02/16 17:56:09;;;;;;;;;;;;;;;;;;5111409;28;1939;-40
2023/02/16 17:58:37;;;;;;;;;;;;;;;;;;5112122;28;1768;-43
2023/02/16 18:01:04;;;;;;;;;;;;;;;;;;5112410;28;1968;-44
2023/02/16 18:03:31;;;;;;;;;;;;;;;;;;5099513;28;1947;-41
2023/02/16 18:05:59;;;;;;;;;;;;;;;;;;5091525;28;1681;-40
2023/02/16 18:08:26;;;;;;;;;;;;;;;;;;5091514;28;2186;-43
2023/02/16 18:11:00;;;;;;;;;;;;;;;;;;5091485;28;2024;-46
2023/02/16 18:13:28;;;;;;;;;;;;;;;;;;5091343;28;2149;-48
2023/02/16 18:15:55;;;;;;;;;;;;;;;;;;5091412;28;1535;-43